createdAt,value
2023-03-05T00:01:29.548Z,44.67
2023-03-05T00:04:05.395Z,59.13
2023-03-05T00:06:37.184Z,43.43
2023-03-05T00:09:09.089Z,41.13
2023-03-05T00:11:40.973Z,44.47
2023-03-05T00:14:13.421Z,42.80
2023-03-05T00:16:45.566Z,47.23
2023-03-05T00:19:17.268Z,44.90
2023-03-05T00:21:49.059Z,41.90
2023-03-05T00:24:20.807Z,43.13
2023-03-05T00:26:53.190Z,52.22
2023-03-05T00:29:25.071Z,46.80
2023-03-05T00:31:56.856Z,48.90
2023-03-05T00:34:29.681Z,42.50
2023-03-05T00:37:01.680Z,40.83
2023-03-05T00:39:33.657Z,38.83
2023-03-05T00:42:05.563Z,40.33
2023-03-05T00:44:37.359Z,42.20
2023-03-05T00:47:09.091Z,40.07
2023-03-05T00:49:40.899Z,45.73
2023-03-05T00:52:12.611Z,43.00
2023-03-05T00:54:44.415Z,42.60
2023-03-05T00:57:16.184Z,38.50
2023-03-05T00:59:48.078Z,51.97
2023-03-05T01:02:19.744Z,46.43
2023-03-05T01:04:51.558Z,46.63
2023-03-05T01:07:23.473Z,48.43
2023-03-05T01:09:55.200Z,48.03
2023-03-05T01:12:26.923Z,47.70
2023-03-05T01:14:58.613Z,50.80
2023-03-05T01:17:30.326Z,50.67
2023-03-05T01:20:02.256Z,44.30
2023-03-05T01:22:34.182Z,51.70
2023-03-05T01:25:06.214Z,50.40
2023-03-05T01:27:37.966Z,50.77
2023-03-05T01:30:10.688Z,51.07
2023-03-05T01:32:43.226Z,49.00
2023-03-05T01:35:22.277Z,56.73
2023-03-05T01:37:56.049Z,50.47
2023-03-05T01:40:30.148Z,46.40
2023-03-05T01:43:12.089Z,60.93
2023-03-05T01:46:21.760Z,50.20
2023-03-05T01:49:08.620Z,54.97
2023-03-05T01:51:55.068Z,52.53
2023-03-05T01:54:33.604Z,55.13
2023-03-05T01:57:10.826Z,49.03
2023-03-05T01:59:46.018Z,53.33
2023-03-05T02:02:18.814Z,59.77
2023-03-05T02:04:56.167Z,47.70
2023-03-05T02:07:29.065Z,44.47
2023-03-05T02:10:00.762Z,53.83
2023-03-05T02:12:32.468Z,50.67
2023-03-05T02:15:04.590Z,49.40
2023-03-05T02:17:36.320Z,49.63
2023-03-05T02:20:15.110Z,55.27
2023-03-05T02:22:47.277Z,54.23
2023-03-05T02:25:28.711Z,52.17
2023-03-05T02:28:14.962Z,57.97
2023-03-05T02:30:46.860Z,51.63
2023-03-05T02:33:20.277Z,48.03
2023-03-05T02:35:52.537Z,57.20
2023-03-05T02:38:24.341Z,41.60
2023-03-05T02:40:56.043Z,45.53
2023-03-05T02:43:27.876Z,57.30
2023-03-05T02:45:59.600Z,42.03
2023-03-05T02:48:32.016Z,49.30
2023-03-05T02:51:06.844Z,52.87
2023-03-05T02:53:38.647Z,46.37
2023-03-05T02:56:10.800Z,53.50
2023-03-05T02:58:42.996Z,47.40
2023-03-05T03:01:15.058Z,43.07
2023-03-05T03:03:46.919Z,39.17
2023-03-05T03:06:18.661Z,44.40
2023-03-05T03:08:50.465Z,46.37
2023-03-05T03:11:22.290Z,52.85
2023-03-05T03:13:54.017Z,56.87
2023-03-05T03:16:25.776Z,49.43
2023-03-05T03:18:57.498Z,53.33
2023-03-05T03:21:29.282Z,48.73
2023-03-05T03:24:01.053Z,47.10
2023-03-05T03:26:32.822Z,49.17
2023-03-05T03:29:04.483Z,49.80
2023-03-05T03:31:36.245Z,44.70
2023-03-05T03:34:07.992Z,57.30
2023-03-05T03:36:39.762Z,41.57
2023-03-05T03:39:13.389Z,45.73
2023-03-05T03:41:51.047Z,46.83
2023-03-05T03:44:23.266Z,35.30
2023-03-05T03:46:54.992Z,38.90
2023-03-05T03:49:28.194Z,47.53
2023-03-05T03:52:00.446Z,43.00
2023-03-05T03:54:32.614Z,36.47
2023-03-05T03:57:04.698Z,47.80
2023-03-05T03:59:36.524Z,41.10
2023-03-05T04:02:08.299Z,43.87
2023-03-05T04:04:40.152Z,36.93
2023-03-05T04:07:12.178Z,51.20
2023-03-05T04:09:44.272Z,40.70
2023-03-05T04:12:18.234Z,47.37
2023-03-05T04:14:50.310Z,38.47
2023-03-05T04:17:22.013Z,36.27
2023-03-05T04:19:53.783Z,34.43
2023-03-05T04:22:25.484Z,38.00
2023-03-05T04:24:57.243Z,43.60
2023-03-05T04:27:29.113Z,37.07
2023-03-05T04:30:01.256Z,37.13
2023-03-05T04:32:32.986Z,36.87
2023-03-05T04:35:04.997Z,37.00
2023-03-05T04:37:36.767Z,38.33
2023-03-05T04:40:09.331Z,40.80
2023-03-05T04:42:41.374Z,37.50
2023-03-05T04:45:13.694Z,29.87
2023-03-05T04:47:45.569Z,38.97
2023-03-05T04:50:17.477Z,38.37
2023-03-05T04:52:49.220Z,40.17
2023-03-05T04:55:20.929Z,37.70
2023-03-05T04:57:52.604Z,35.70
2023-03-05T05:00:24.797Z,40.93
2023-03-05T05:02:56.627Z,36.70
2023-03-05T05:05:28.916Z,50.37
2023-03-05T05:08:00.778Z,44.87
2023-03-05T05:10:33.024Z,39.20
2023-03-05T05:13:04.761Z,43.30
2023-03-05T05:15:36.654Z,41.73
2023-03-05T05:18:08.335Z,51.60
2023-03-05T05:20:40.086Z,37.17
2023-03-05T05:23:11.762Z,37.17
2023-03-05T05:25:43.523Z,36.33
2023-03-05T05:28:15.235Z,44.87
2023-03-05T05:30:46.993Z,30.03
2023-03-05T05:33:18.684Z,34.97
2023-03-05T05:35:50.940Z,45.17
2023-03-05T05:38:22.736Z,42.83
2023-03-05T05:40:54.476Z,40.63
2023-03-05T05:43:26.253Z,35.37
2023-03-05T05:46:03.321Z,34.03
2023-03-05T05:48:36.765Z,37.20
2023-03-05T05:51:11.092Z,41.10
2023-03-05T05:53:43.800Z,36.43
2023-03-05T05:56:16.831Z,38.73
2023-03-05T05:58:49.189Z,34.37
2023-03-05T06:01:26.334Z,36.03
2023-03-05T06:03:58.761Z,35.90
2023-03-05T06:06:30.907Z,33.90
2023-03-05T06:09:02.896Z,38.70
2023-03-05T06:11:34.701Z,42.57
2023-03-05T06:14:07.679Z,40.90
2023-03-05T06:16:39.825Z,43.13
2023-03-05T06:19:15.734Z,40.40
2023-03-05T06:21:47.607Z,40.20
2023-03-05T06:24:19.500Z,40.43
2023-03-05T06:26:51.280Z,49.80
2023-03-05T06:29:23.291Z,40.60
2023-03-05T06:31:55.019Z,45.70
2023-03-05T06:34:26.856Z,39.57
2023-03-05T06:36:58.516Z,41.53
2023-03-05T06:39:31.582Z,45.10
2023-03-05T06:42:03.514Z,43.50
2023-03-05T06:44:35.257Z,35.20
2023-03-05T06:47:09.331Z,32.00
2023-03-05T06:49:42.232Z,37.57
2023-03-05T06:52:13.946Z,38.07
2023-03-05T06:54:45.692Z,34.93
2023-03-05T06:57:17.412Z,38.83
2023-03-05T06:59:49.695Z,38.30
2023-03-05T07:02:21.535Z,29.73
2023-03-05T07:04:53.325Z,38.83
2023-03-05T07:07:25.114Z,31.90
2023-03-05T07:09:56.900Z,30.37
2023-03-05T07:12:28.667Z,36.07
2023-03-05T07:15:01.084Z,37.87
2023-03-05T07:17:32.755Z,33.63
2023-03-05T07:20:05.206Z,37.83
2023-03-05T07:22:38.063Z,36.47
2023-03-05T07:25:10.004Z,44.13
2023-03-05T07:27:41.755Z,38.83
2023-03-05T07:30:14.349Z,35.00
2023-03-05T07:32:46.284Z,34.10
2023-03-05T07:35:18.208Z,33.27
2023-03-05T07:37:50.560Z,38.07
2023-03-05T07:40:23.243Z,34.87
2023-03-05T07:42:55.019Z,34.10
2023-03-05T07:45:26.873Z,38.23
2023-03-05T07:47:58.549Z,34.80
2023-03-05T07:50:30.430Z,27.80
2023-03-05T07:53:02.367Z,30.20
2023-03-05T07:55:34.456Z,31.17
2023-03-05T07:58:06.122Z,33.03
2023-03-05T08:00:38.140Z,31.97
2023-03-05T08:03:09.847Z,30.65
2023-03-05T08:05:42.146Z,30.55
2023-03-05T08:08:13.887Z,27.77
2023-03-05T08:10:45.778Z,32.55
2023-03-05T08:13:17.546Z,28.20
2023-03-05T08:15:49.324Z,29.83
2023-03-05T08:18:20.984Z,31.53
2023-03-05T08:20:52.800Z,29.10
2023-03-05T08:23:24.565Z,31.33
2023-03-05T08:25:56.643Z,33.50
2023-03-05T08:28:28.668Z,26.27
2023-03-05T08:31:00.439Z,28.57
2023-03-05T08:33:33.847Z,27.37
2023-03-05T08:36:08.568Z,26.97
2023-03-05T08:38:40.444Z,34.00
2023-03-05T08:41:12.480Z,40.43
2023-03-05T08:43:44.185Z,33.20
2023-03-05T08:46:16.868Z,36.67
2023-03-05T08:48:48.610Z,28.73
2023-03-05T08:51:24.830Z,29.00
2023-03-05T08:53:59.285Z,33.87
2023-03-05T08:56:31.418Z,37.60
2023-03-05T08:59:04.125Z,35.73
2023-03-05T09:01:35.900Z,24.73
2023-03-05T09:04:07.837Z,29.33
2023-03-05T09:06:40.474Z,33.20
2023-03-05T09:09:13.667Z,29.20
2023-03-05T09:11:45.581Z,30.57
2023-03-05T09:14:17.661Z,24.30
2023-03-05T09:16:49.440Z,33.93
2023-03-05T09:19:21.611Z,29.53
2023-03-05T09:21:55.997Z,28.00
2023-03-05T09:24:28.590Z,27.70
2023-03-05T09:27:00.844Z,26.33
2023-03-05T09:29:32.544Z,26.23
2023-03-05T09:32:04.508Z,28.50
2023-03-05T09:34:36.300Z,30.60
2023-03-05T09:37:09.046Z,26.33
2023-03-05T09:39:40.824Z,32.13
2023-03-05T09:42:34.585Z,30.73
2023-03-05T09:45:25.606Z,29.53
2023-03-05T09:48:22.731Z,26.03
2023-03-05T09:51:00.863Z,29.83
2023-03-05T09:53:43.057Z,33.63
2023-03-05T09:56:21.080Z,37.37
2023-03-05T09:59:00.102Z,31.93
2023-03-05T10:01:44.173Z,25.25
2023-03-05T10:04:24.073Z,31.80
2023-03-05T10:07:12.469Z,30.05
2023-03-05T10:10:39.866Z,35.93
2023-03-05T10:13:25.380Z,29.90
2023-03-05T10:16:15.916Z,26.50
2023-03-05T10:19:18.097Z,25.85
2023-03-05T10:22:14.528Z,27.50
2023-03-05T10:24:49.374Z,25.10
2023-03-05T10:27:31.106Z,30.23
2023-03-05T10:30:35.375Z,29.67
2023-03-05T10:33:10.041Z,26.33
2023-03-05T10:35:50.738Z,32.43
2023-03-05T10:39:00.030Z,33.23
2023-03-05T10:42:02.667Z,32.93
2023-03-05T10:44:56.372Z,26.80
2023-03-05T10:48:06.100Z,32.63
2023-03-05T10:50:44.956Z,25.93
2023-03-05T10:53:34.969Z,34.43
2023-03-05T10:56:06.813Z,27.43
2023-03-05T10:58:38.678Z,31.37
2023-03-05T11:01:10.347Z,27.60
2023-03-05T11:03:58.714Z,23.93
2023-03-05T11:06:42.857Z,21.43
2023-03-05T11:09:24.371Z,23.73
2023-03-05T11:12:13.465Z,27.90
2023-03-05T11:15:05.648Z,28.60
2023-03-05T11:17:43.114Z,22.47
2023-03-05T11:20:29.152Z,25.67
2023-03-05T11:23:11.888Z,23.85
2023-03-05T11:26:05.739Z,35.53
2023-03-05T11:28:40.925Z,24.87
2023-03-05T11:31:15.811Z,30.47
2023-03-05T11:34:00.037Z,23.87
2023-03-05T11:36:43.221Z,24.27
2023-03-05T11:39:20.884Z,23.40
2023-03-05T11:41:54.420Z,20.17
2023-03-05T11:44:30.697Z,28.10
2023-03-05T11:47:11.420Z,27.37
2023-03-05T11:49:50.044Z,27.30
2023-03-05T11:52:31.116Z,24.10
2023-03-05T11:55:10.942Z,24.57
2023-03-05T11:58:08.087Z,25.77
2023-03-05T12:00:45.065Z,26.83
2023-03-05T12:03:22.885Z,31.03
2023-03-05T12:06:00.234Z,27.50
2023-03-05T12:08:36.867Z,25.87
2023-03-05T12:11:20.452Z,32.17
2023-03-05T12:13:59.602Z,27.00
2023-03-05T12:16:46.785Z,29.63
2023-03-05T12:19:45.622Z,30.03
2023-03-05T12:22:21.220Z,35.07
2023-03-05T12:24:53.200Z,28.47
2023-03-05T12:27:37.926Z,24.30
2023-03-05T12:30:49.895Z,24.87
2023-03-05T12:33:40.030Z,26.73
2023-03-05T12:36:17.606Z,27.30
2023-03-05T12:38:57.389Z,26.27
2023-03-05T12:41:29.081Z,23.70
2023-03-05T12:44:06.860Z,25.13
2023-03-05T12:46:42.557Z,29.40
2023-03-05T12:49:20.350Z,23.47
2023-03-05T12:51:54.673Z,25.53
2023-03-05T12:54:35.343Z,30.50
2023-03-05T12:57:17.710Z,28.67
2023-03-05T13:00:05.963Z,29.17
2023-03-05T13:02:44.628Z,24.60
2023-03-05T13:05:28.039Z,29.10
2023-03-05T13:08:17.674Z,23.80
2023-03-05T13:10:59.253Z,26.93
2023-03-05T13:13:35.401Z,26.07
2023-03-05T13:16:24.075Z,27.87
2023-03-05T13:18:59.188Z,32.47
2023-03-05T13:21:33.387Z,32.07
2023-03-05T13:24:18.513Z,28.20
2023-03-05T13:26:50.333Z,31.53
2023-03-05T13:29:28.133Z,28.20
2023-03-05T13:32:19.965Z,32.47
2023-03-05T13:34:55.052Z,34.83
2023-03-05T13:37:30.432Z,27.53
2023-03-05T13:40:26.129Z,31.63
2023-03-05T13:43:18.208Z,28.63
2023-03-05T13:45:55.068Z,31.60
2023-03-05T13:48:28.283Z,33.83
2023-03-05T13:51:00.164Z,33.73
2023-03-05T13:53:32.532Z,30.10
2023-03-05T13:56:07.892Z,31.33
2023-03-05T13:58:52.417Z,28.30
2023-03-05T14:01:30.474Z,28.30
2023-03-05T14:04:14.358Z,28.63
2023-03-05T14:06:48.812Z,27.00
2023-03-05T14:09:22.371Z,31.13
2023-03-05T14:12:03.283Z,29.30
2023-03-05T14:14:38.212Z,26.10
2023-03-05T14:17:35.253Z,26.57
2023-03-05T14:20:14.634Z,22.80
2023-03-05T14:22:48.784Z,24.83
2023-03-05T14:25:33.691Z,26.57
2023-03-05T14:28:19.652Z,21.33
2023-03-05T14:30:54.797Z,27.77
2023-03-05T14:33:32.044Z,27.47
2023-03-05T14:36:04.797Z,24.23
2023-03-05T14:38:41.046Z,30.67
2023-03-05T14:41:22.755Z,22.80
2023-03-05T14:43:55.946Z,32.23
2023-03-05T14:46:28.191Z,23.60
2023-03-05T14:48:59.912Z,28.43
2023-03-05T14:51:35.148Z,24.52
2023-03-05T14:54:06.933Z,21.47
2023-03-05T14:56:38.716Z,27.87
2023-03-05T14:59:10.384Z,21.90
2023-03-05T15:01:42.113Z,23.20
2023-03-05T15:04:18.645Z,26.07
2023-03-05T15:06:51.702Z,21.87
2023-03-05T15:09:23.428Z,23.33
2023-03-05T15:11:55.120Z,26.00
2023-03-05T15:14:26.786Z,27.60
2023-03-05T15:16:58.718Z,31.67
2023-03-05T15:19:30.415Z,23.70
2023-03-05T15:22:02.502Z,25.73
2023-03-05T15:24:34.278Z,24.07
2023-03-05T15:27:06.790Z,30.10
2023-03-05T15:29:38.601Z,23.03
2023-03-05T15:32:10.884Z,22.93
2023-03-05T15:34:42.880Z,27.13
2023-03-05T15:37:14.561Z,28.67
2023-03-05T15:39:46.314Z,23.70
2023-03-05T15:42:18.546Z,30.50
2023-03-05T15:44:50.259Z,28.38
2023-03-05T15:47:21.944Z,26.60
2023-03-05T15:49:53.649Z,31.10
2023-03-05T15:52:25.373Z,26.37
2023-03-05T15:54:57.090Z,25.57
2023-03-05T15:57:29.156Z,26.83
2023-03-05T16:00:00.944Z,38.23
2023-03-05T16:02:32.714Z,32.20
2023-03-05T16:05:05.300Z,28.93
2023-03-05T16:07:40.021Z,28.03
2023-03-05T16:10:20.324Z,31.70
2023-03-05T16:12:57.632Z,27.77
2023-03-05T16:15:31.852Z,32.90
2023-03-05T16:18:08.081Z,26.97
2023-03-05T16:20:40.113Z,26.60
2023-03-05T16:23:11.809Z,29.70
2023-03-05T16:25:43.601Z,31.50
2023-03-05T16:28:15.403Z,27.77
2023-03-05T16:30:56.089Z,25.17
2023-03-05T16:33:27.977Z,31.83
2023-03-05T16:36:22.440Z,23.53
2023-03-05T16:38:58.115Z,32.63
2023-03-05T16:41:30.169Z,31.00
2023-03-05T16:44:01.917Z,30.83
2023-03-05T16:46:35.167Z,25.73
2023-03-05T16:49:08.449Z,22.97
2023-03-05T16:51:40.248Z,22.20
2023-03-05T16:54:12.101Z,28.13
2023-03-05T16:56:43.905Z,24.70
2023-03-05T16:59:15.640Z,26.23
2023-03-05T17:01:48.044Z,21.00
2023-03-05T17:04:19.795Z,29.60
2023-03-05T17:06:51.969Z,38.67
2023-03-05T17:09:24.527Z,23.80
2023-03-05T17:11:56.202Z,26.37
2023-03-05T17:14:27.909Z,26.27
2023-03-05T17:17:01.252Z,24.93
2023-03-05T17:19:33.014Z,28.03
2023-03-05T17:22:05.144Z,28.23
2023-03-05T17:24:37.843Z,33.57
2023-03-05T17:27:10.306Z,28.60
2023-03-05T17:29:42.445Z,28.20
2023-03-05T17:32:14.851Z,28.73
2023-03-05T17:34:46.555Z,32.93
2023-03-05T17:37:19.122Z,29.93
2023-03-05T17:39:51.001Z,34.30
2023-03-05T17:42:22.772Z,26.33
2023-03-05T17:44:54.440Z,27.13
2023-03-05T17:47:26.461Z,30.17
2023-03-05T17:49:58.475Z,26.80
2023-03-05T17:52:30.291Z,25.77
2023-03-05T17:55:02.334Z,35.40
2023-03-05T17:57:34.033Z,34.70
2023-03-05T18:00:06.732Z,32.63
2023-03-05T18:02:38.683Z,30.35
2023-03-05T18:05:11.000Z,34.43
2023-03-05T18:07:42.820Z,29.07
2023-03-05T18:10:22.957Z,27.97
2023-03-05T18:12:55.288Z,29.47
2023-03-05T18:15:28.479Z,32.87
2023-03-05T18:18:00.582Z,27.43
2023-03-05T18:20:36.266Z,28.50
2023-03-05T18:23:08.150Z,34.80
2023-03-05T18:25:40.054Z,34.05
2023-03-05T18:28:14.166Z,33.87
2023-03-05T18:30:46.895Z,27.03
2023-03-05T18:33:25.415Z,29.83
2023-03-05T18:35:57.823Z,38.60
2023-03-05T18:38:29.770Z,27.10
2023-03-05T18:41:03.159Z,31.80
2023-03-05T18:43:35.708Z,30.07
2023-03-05T18:46:08.549Z,34.67
2023-03-05T18:48:40.294Z,25.33
2023-03-05T18:51:17.501Z,28.47
2023-03-05T18:53:51.153Z,27.50
2023-03-05T18:56:23.919Z,30.67
2023-03-05T18:58:56.976Z,24.73
2023-03-05T19:01:29.718Z,26.90
2023-03-05T19:04:01.645Z,24.93
2023-03-05T19:06:35.744Z,30.33
2023-03-05T19:09:10.984Z,24.77
2023-03-05T19:11:42.856Z,31.10
2023-03-05T19:14:14.597Z,30.27
2023-03-05T19:16:46.383Z,35.37
2023-03-05T19:19:25.424Z,32.65
2023-03-05T19:21:59.653Z,34.50
2023-03-05T19:24:32.417Z,31.53
2023-03-05T19:27:10.967Z,32.20
2023-03-05T19:29:43.277Z,32.10
2023-03-05T19:32:17.773Z,38.47
2023-03-05T19:34:50.426Z,31.83
2023-03-05T19:37:22.644Z,33.07
2023-03-05T19:39:54.548Z,26.83
2023-03-05T19:42:26.418Z,28.37
2023-03-05T19:45:00.018Z,26.93
2023-03-05T19:47:32.385Z,25.70
2023-03-05T19:50:05.375Z,30.98
2023-03-05T19:52:37.112Z,29.43
2023-03-05T19:55:09.497Z,22.70
2023-03-05T19:57:41.222Z,28.10
2023-03-05T20:00:13.699Z,35.70
2023-03-05T20:02:45.458Z,41.80
2023-03-05T20:05:17.273Z,35.33
2023-03-05T20:07:49.036Z,41.53
2023-03-05T20:10:20.924Z,43.27
2023-03-05T20:12:52.672Z,37.70
2023-03-05T20:15:29.136Z,29.33
2023-03-05T20:18:01.008Z,28.87
2023-03-05T20:20:32.867Z,30.70
2023-03-05T20:23:04.576Z,25.93
2023-03-05T20:25:38.689Z,27.90
2023-03-05T20:28:10.365Z,35.33
2023-03-05T20:30:43.793Z,41.20
2023-03-05T20:33:15.569Z,38.73
2023-03-05T20:35:47.367Z,31.27
2023-03-05T20:38:29.377Z,32.63
2023-03-05T20:41:06.294Z,29.70
2023-03-05T20:43:42.504Z,28.23
2023-03-05T20:46:23.153Z,32.23
2023-03-05T20:48:58.994Z,35.03
2023-03-05T20:51:36.212Z,29.50
2023-03-05T20:54:11.729Z,40.00
2023-03-05T20:56:43.881Z,34.43
2023-03-05T20:59:16.824Z,28.43
2023-03-05T21:01:48.754Z,31.67
2023-03-05T21:04:20.530Z,26.60
2023-03-05T21:06:54.029Z,26.00
2023-03-05T21:09:28.341Z,28.17
2023-03-05T21:12:00.283Z,33.73
2023-03-05T21:14:37.600Z,33.00
2023-03-05T21:17:09.865Z,42.50
2023-03-05T21:19:41.564Z,34.50
2023-03-05T21:22:13.296Z,28.77
2023-03-05T21:25:03.302Z,36.17
2023-03-05T21:27:34.981Z,31.40
2023-03-05T21:30:07.173Z,38.13
2023-03-05T21:32:38.953Z,29.47
2023-03-05T21:35:19.377Z,30.80
2023-03-05T21:37:52.593Z,38.30
2023-03-05T21:40:25.092Z,30.67
2023-03-05T21:42:56.863Z,27.40
2023-03-05T21:45:29.771Z,28.50
2023-03-05T21:48:01.569Z,28.40
2023-03-05T21:50:34.360Z,35.70
2023-03-05T21:53:06.262Z,34.40
2023-03-05T21:55:56.433Z,32.83
2023-03-05T21:58:28.134Z,28.70
2023-03-05T22:01:00.301Z,31.70
2023-03-05T22:03:32.169Z,33.00
2023-03-05T22:06:04.145Z,29.13
2023-03-05T22:08:35.951Z,25.23
2023-03-05T22:11:12.932Z,26.03
2023-03-05T22:13:44.681Z,27.67
2023-03-05T22:16:24.619Z,30.17
2023-03-05T22:18:56.465Z,21.33
2023-03-05T22:21:29.235Z,26.30
2023-03-05T22:24:01.092Z,25.20
2023-03-05T22:26:38.559Z,33.07
2023-03-05T22:29:11.602Z,30.37
2023-03-05T22:31:44.427Z,25.37
2023-03-05T22:34:16.182Z,31.67
2023-03-05T22:36:47.866Z,27.80
2023-03-05T22:39:19.628Z,26.37
2023-03-05T22:41:51.388Z,25.07
2023-03-05T22:44:25.081Z,32.77
2023-03-05T22:46:56.955Z,26.40
2023-03-05T22:49:28.632Z,33.60
2023-03-05T22:52:00.363Z,33.20
2023-03-05T22:54:32.116Z,27.13
2023-03-05T22:57:04.273Z,32.43
2023-03-05T22:59:35.936Z,33.23
2023-03-05T23:02:07.654Z,31.67
2023-03-05T23:04:49.713Z,33.17
2023-03-05T23:07:23.235Z,28.87
2023-03-05T23:10:02.049Z,29.17
2023-03-05T23:12:36.735Z,30.00
2023-03-05T23:15:13.144Z,30.73
2023-03-05T23:17:44.969Z,29.53
2023-03-05T23:20:23.508Z,31.47
2023-03-05T23:22:56.129Z,29.37
2023-03-05T23:25:30.956Z,30.87
2023-03-05T23:28:03.875Z,39.87
2023-03-05T23:30:39.411Z,32.83
2023-03-05T23:33:22.401Z,41.10
2023-03-05T23:36:01.067Z,30.00
2023-03-05T23:38:33.160Z,34.43
2023-03-05T23:41:09.450Z,35.97
2023-03-05T23:43:41.155Z,36.60
2023-03-05T23:46:12.942Z,42.33
2023-03-05T23:48:44.626Z,35.75
2023-03-05T23:51:17.276Z,32.87
2023-03-05T23:53:49.036Z,31.67
2023-03-05T23:56:20.853Z,33.90
2023-03-05T23:58:56.099Z,30.97
